createdAt,value
2022-12-15T00:00:45.382Z,58.60
2022-12-15T00:03:33.399Z,59.07
2022-12-15T00:06:20.620Z,61.92
2022-12-15T00:09:12.681Z,56.15
2022-12-15T00:12:00.718Z,59.15
2022-12-15T00:14:47.240Z,41.00
2022-12-15T00:17:33.561Z,56.50
2022-12-15T00:20:21.815Z,58.17
2022-12-15T00:23:08.424Z,58.45
2022-12-15T00:25:55.218Z,62.65
2022-12-15T00:28:42.883Z,62.33
2022-12-15T00:31:29.472Z,65.38
2022-12-15T00:34:15.844Z,58.17
2022-12-15T00:37:03.528Z,63.08
2022-12-15T00:39:32.692Z,61.42
2022-12-15T00:42:01.835Z,61.58
2022-12-15T00:44:31.010Z,61.83
2022-12-15T00:46:59.131Z,59.97
2022-12-15T00:49:47.211Z,57.63
2022-12-15T00:52:36.718Z,59.47
2022-12-15T00:55:24.250Z,65.70
2022-12-15T01:00:58.889Z,46.72
2022-12-15T01:03:45.369Z,64.32
2022-12-15T01:06:34.093Z,59.67
2022-12-15T01:09:24.800Z,60.53
2022-12-15T01:12:11.362Z,60.13
2022-12-15T01:14:57.916Z,61.92
2022-12-15T01:17:44.213Z,60.60
2022-12-15T01:20:18.655Z,60.28
2022-12-15T01:22:49.411Z,61.72
2022-12-15T01:25:22.050Z,59.45
2022-12-15T01:27:51.504Z,62.90
2022-12-15T01:30:23.183Z,61.28
2022-12-15T01:32:52.664Z,63.38
2022-12-15T01:35:22.463Z,62.40
2022-12-15T01:37:51.573Z,59.00
2022-12-15T01:40:40.365Z,56.58
2022-12-15T01:43:15.112Z,53.10
2022-12-15T01:46:06.381Z,53.53
2022-12-15T01:48:45.544Z,52.55
2022-12-15T01:51:29.752Z,51.78
2022-12-15T01:54:05.652Z,54.22
2022-12-15T01:56:44.032Z,53.95
2022-12-15T01:59:19.656Z,52.72
2022-12-15T02:01:49.763Z,57.47
2022-12-15T02:04:20.797Z,59.60
2022-12-15T02:06:49.994Z,56.13
2022-12-15T02:09:20.290Z,53.15
2022-12-15T02:12:05.331Z,56.28
2022-12-15T02:15:09.452Z,55.17
2022-12-15T02:17:48.068Z,54.22
2022-12-15T02:20:50.648Z,54.67
2022-12-15T02:23:56.461Z,52.83
2022-12-15T02:27:21.198Z,52.60
2022-12-15T02:30:27.556Z,51.20
2022-12-15T02:33:08.084Z,52.25
2022-12-15T02:35:48.677Z,52.55
2022-12-15T02:38:28.993Z,53.65
2022-12-15T02:41:02.932Z,52.72
2022-12-15T02:43:37.271Z,54.78
2022-12-15T02:46:23.126Z,52.40
2022-12-15T02:49:05.207Z,54.17
2022-12-15T02:51:55.039Z,52.17
2022-12-15T02:54:49.134Z,55.15
2022-12-15T02:57:26.165Z,51.95
2022-12-15T03:02:34.443Z,51.72
2022-12-15T03:05:06.026Z,53.10
2022-12-15T03:07:35.455Z,50.67
2022-12-15T03:10:08.186Z,51.45
2022-12-15T03:12:37.690Z,56.47
2022-12-15T03:15:08.535Z,53.10
2022-12-15T03:17:39.208Z,55.33
2022-12-15T03:20:10.217Z,53.08
2022-12-15T03:22:40.007Z,55.05
2022-12-15T03:25:09.991Z,54.65
2022-12-15T03:27:39.049Z,54.42
2022-12-15T03:30:10.089Z,56.70
2022-12-15T03:32:40.776Z,53.63
2022-12-15T03:35:10.722Z,52.47
2022-12-15T03:37:40.044Z,54.22
2022-12-15T03:40:11.602Z,52.15
2022-12-15T03:42:49.670Z,51.88
2022-12-15T03:45:20.183Z,54.80
2022-12-15T03:47:52.365Z,53.60
2022-12-15T03:50:24.252Z,51.78
2022-12-15T03:52:54.437Z,50.65
2022-12-15T03:55:24.453Z,53.60
2022-12-15T03:57:53.843Z,52.33
2022-12-15T04:00:24.529Z,52.67
2022-12-15T04:02:55.979Z,50.60
2022-12-15T04:05:28.384Z,56.63
2022-12-15T04:07:59.326Z,53.80
2022-12-15T04:10:34.235Z,51.55
2022-12-15T04:13:06.680Z,51.90
2022-12-15T04:15:37.582Z,54.72
2022-12-15T04:18:11.625Z,52.88
2022-12-15T04:20:41.393Z,53.65
2022-12-15T04:23:10.636Z,49.47
2022-12-15T04:25:57.263Z,48.80
2022-12-15T04:28:43.883Z,48.93
2022-12-15T04:31:33.365Z,48.27
2022-12-15T04:34:25.176Z,48.38
2022-12-15T04:37:12.676Z,50.97
2022-12-15T04:42:50.506Z,50.70
2022-12-15T04:45:40.196Z,51.17
2022-12-15T04:48:26.911Z,53.63
2022-12-15T04:51:15.141Z,54.37
2022-12-15T04:54:02.253Z,52.55
2022-12-15T04:56:49.879Z,53.65
2022-12-15T04:59:37.132Z,53.42
2022-12-15T05:02:23.886Z,52.00
2022-12-15T05:05:10.493Z,52.90
2022-12-15T05:07:58.133Z,60.88
2022-12-15T05:10:44.419Z,65.18
2022-12-15T05:13:31.358Z,61.47
2022-12-15T05:16:18.259Z,60.38
2022-12-15T05:19:10.754Z,58.90
2022-12-15T05:21:57.921Z,60.72
2022-12-15T05:24:47.132Z,59.93
2022-12-15T05:27:33.694Z,54.65
2022-12-15T05:30:19.873Z,41.38
2022-12-15T05:32:49.984Z,54.83
2022-12-15T05:35:19.199Z,54.17
2022-12-15T05:37:48.420Z,54.42
2022-12-15T05:40:18.915Z,53.60
2022-12-15T05:42:50.260Z,56.58
2022-12-15T05:45:20.286Z,55.17
2022-12-15T05:47:53.687Z,56.75
2022-12-15T05:50:24.222Z,56.10
2022-12-15T05:52:54.495Z,56.05
2022-12-15T05:55:25.410Z,57.83
2022-12-15T05:57:58.118Z,60.45
2022-12-15T06:00:31.969Z,60.83
2022-12-15T06:03:03.061Z,62.60
2022-12-15T06:05:32.624Z,72.97
2022-12-15T06:08:02.362Z,69.03
2022-12-15T06:10:32.891Z,65.63
2022-12-15T06:13:02.170Z,68.15
2022-12-15T06:15:31.715Z,72.15
2022-12-15T06:18:01.017Z,68.18
2022-12-15T06:20:32.593Z,64.63
2022-12-15T06:23:01.935Z,66.07
2022-12-15T06:25:32.578Z,64.00
2022-12-15T06:28:02.163Z,69.63
2022-12-15T06:30:32.840Z,69.95
2022-12-15T06:33:02.936Z,68.85
2022-12-15T06:35:32.147Z,69.90
2022-12-15T06:38:01.959Z,72.53
2022-12-15T06:40:37.698Z,71.82
2022-12-15T06:43:07.822Z,68.67
2022-12-15T06:45:37.064Z,66.15
2022-12-15T06:48:08.400Z,68.07
2022-12-15T06:50:37.416Z,68.38
2022-12-15T06:53:06.519Z,73.18
2022-12-15T06:55:37.028Z,76.22
2022-12-15T06:58:06.132Z,77.65
2022-12-15T07:00:37.943Z,75.40
2022-12-15T07:03:12.150Z,72.88
2022-12-15T07:05:41.437Z,79.80
2022-12-15T07:08:12.075Z,79.05
2022-12-15T07:10:44.163Z,82.10
2022-12-15T07:13:14.129Z,79.45
2022-12-15T07:15:44.596Z,76.93
2022-12-15T07:18:13.793Z,98.20
2022-12-15T07:20:43.063Z,94.35
2022-12-15T07:23:12.348Z,82.05
2022-12-15T07:25:42.774Z,82.00
2022-12-15T07:28:12.158Z,78.80
2022-12-15T07:30:41.281Z,76.07
2022-12-15T07:33:10.437Z,78.40
2022-12-15T07:35:39.557Z,79.68
2022-12-15T07:38:09.725Z,80.78
2022-12-15T07:40:39.159Z,77.53
2022-12-15T07:43:09.644Z,74.40
2022-12-15T07:45:39.855Z,73.93
2022-12-15T07:48:08.788Z,70.20
2022-12-15T07:50:39.696Z,70.82
2022-12-15T07:53:08.687Z,72.00
2022-12-15T07:56:05.511Z,69.50
2022-12-15T07:58:29.416Z,67.38
2022-12-15T08:01:01.920Z,69.10
2022-12-15T08:03:31.976Z,72.22
2022-12-15T08:06:05.511Z,74.25
2022-12-15T08:08:36.517Z,75.65
2022-12-15T08:11:06.853Z,73.75
2022-12-15T08:16:29.168Z,76.43
2022-12-15T08:18:59.338Z,79.20
2022-12-15T08:21:28.439Z,75.57
2022-12-15T08:23:57.563Z,77.50
2022-12-15T08:26:30.305Z,77.82
2022-12-15T08:29:49.099Z,75.63
2022-12-15T08:31:54.917Z,74.07
2022-12-15T08:34:24.172Z,71.65
2022-12-15T08:36:53.181Z,71.72
2022-12-15T08:39:22.151Z,76.00
2022-12-15T08:41:51.549Z,72.32
2022-12-15T08:44:23.220Z,74.05
2022-12-15T08:46:52.508Z,75.85
2022-12-15T08:49:22.502Z,70.13
2022-12-15T08:51:52.516Z,69.20
2022-12-15T08:54:22.523Z,72.47
2022-12-15T08:56:51.700Z,71.68
2022-12-15T08:59:22.133Z,72.47
2022-12-15T09:01:51.441Z,71.35
2022-12-15T09:04:20.734Z,68.68
2022-12-15T09:06:50.430Z,68.72
2022-12-15T09:09:20.652Z,69.85
2022-12-15T09:11:51.285Z,72.38
2022-12-15T09:14:28.878Z,71.93
2022-12-15T09:16:58.759Z,71.50
2022-12-15T09:19:28.012Z,72.55
2022-12-15T09:21:56.999Z,69.72
2022-12-15T09:24:34.419Z,73.70
2022-12-15T09:27:05.222Z,70.57
2022-12-15T09:29:35.840Z,71.30
2022-12-15T09:32:10.501Z,71.45
2022-12-15T09:34:41.864Z,68.15
2022-12-15T09:37:10.918Z,67.90
2022-12-15T09:39:40.255Z,63.92
2022-12-15T09:42:26.116Z,66.57
2022-12-15T09:45:08.477Z,68.30
2022-12-15T09:47:46.085Z,65.35
2022-12-15T09:50:17.951Z,66.55
2022-12-15T09:52:51.493Z,66.90
2022-12-15T09:55:24.530Z,65.68
2022-12-15T09:57:57.171Z,64.05
2022-12-15T10:00:42.621Z,63.10
2022-12-15T10:03:42.830Z,61.65
2022-12-15T10:06:19.224Z,61.53
2022-12-15T10:08:57.669Z,62.65
2022-12-15T10:11:50.333Z,63.23
2022-12-15T10:14:31.676Z,62.13
2022-12-15T10:17:18.628Z,61.65
2022-12-15T10:20:01.284Z,62.65
2022-12-15T10:22:34.220Z,62.58
2022-12-15T10:25:15.603Z,62.30
2022-12-15T10:28:10.986Z,62.17
2022-12-15T10:30:52.150Z,63.33
2022-12-15T10:33:26.926Z,63.88
2022-12-15T10:35:59.089Z,62.65
2022-12-15T10:38:38.702Z,64.13
2022-12-15T10:41:10.460Z,63.67
2022-12-15T10:43:42.031Z,61.08
2022-12-15T10:46:15.533Z,60.38
2022-12-15T10:48:49.216Z,62.05
2022-12-15T10:51:27.485Z,62.38
2022-12-15T10:54:14.640Z,59.58
2022-12-15T10:56:53.717Z,61.67
2022-12-15T10:59:31.061Z,62.13
2022-12-15T11:02:34.674Z,58.83
2022-12-15T11:05:19.000Z,57.75
2022-12-15T11:07:51.883Z,58.03
2022-12-15T11:10:24.921Z,56.65
2022-12-15T11:13:16.384Z,54.70
2022-12-15T11:15:50.537Z,55.00
2022-12-15T11:18:43.860Z,54.78
2022-12-15T11:21:25.910Z,53.17
2022-12-15T11:24:09.934Z,56.15
2022-12-15T11:26:53.425Z,54.17
2022-12-15T11:29:34.594Z,52.42
2022-12-15T11:32:07.251Z,54.15
2022-12-15T11:34:44.539Z,54.03
2022-12-15T11:40:40.021Z,53.13
2022-12-15T11:43:52.202Z,55.17
2022-12-15T11:46:24.021Z,55.67
2022-12-15T11:49:29.250Z,56.58
2022-12-15T11:52:06.028Z,56.78
2022-12-15T11:54:45.180Z,56.13
2022-12-15T11:57:42.412Z,55.95
2022-12-15T12:00:15.774Z,56.63
2022-12-15T12:03:21.918Z,52.88
2022-12-15T12:06:06.628Z,54.83
2022-12-15T12:09:10.781Z,55.15
2022-12-15T12:11:48.841Z,56.97
2022-12-15T12:14:37.460Z,54.80
2022-12-15T12:17:15.189Z,51.85
2022-12-15T12:19:50.863Z,55.03
2022-12-15T12:22:27.529Z,55.28
2022-12-15T12:25:02.295Z,55.00
2022-12-15T12:27:40.884Z,55.80
2022-12-15T12:30:17.300Z,55.10
2022-12-15T12:32:54.946Z,54.77
2022-12-15T12:38:26.320Z,52.70
2022-12-15T12:41:06.278Z,52.30
2022-12-15T12:43:43.183Z,50.30
2022-12-15T12:46:22.676Z,51.38
2022-12-15T12:48:59.040Z,49.72
2022-12-15T12:51:32.019Z,53.15
2022-12-15T12:54:30.973Z,52.80
2022-12-15T12:57:00.942Z,50.95
2022-12-15T12:59:41.858Z,51.75
2022-12-15T13:03:12.303Z,49.30
2022-12-15T13:05:44.288Z,48.92
2022-12-15T13:08:51.922Z,47.35
2022-12-15T13:12:00.867Z,47.78
2022-12-15T13:17:32.300Z,52.17
2022-12-15T13:20:29.141Z,49.10
2022-12-15T13:23:44.642Z,49.28
2022-12-15T13:26:19.385Z,49.63
2022-12-15T13:28:54.406Z,50.83
2022-12-15T13:31:49.234Z,51.05
2022-12-15T13:34:33.982Z,51.90
2022-12-15T13:37:04.167Z,52.80
2022-12-15T13:39:59.646Z,53.90
2022-12-15T13:42:37.256Z,52.35
2022-12-15T13:46:06.746Z,51.38
2022-12-15T13:48:41.717Z,52.63
2022-12-15T13:51:33.621Z,51.65
2022-12-15T13:54:16.516Z,52.17
2022-12-15T13:57:06.920Z,53.05
2022-12-15T13:59:45.823Z,53.08
2022-12-15T14:02:57.750Z,54.47
2022-12-15T14:05:32.053Z,53.95
2022-12-15T14:08:13.250Z,55.35
2022-12-15T14:10:51.775Z,54.72
2022-12-15T14:13:27.688Z,56.65
2022-12-15T14:16:04.247Z,54.70
2022-12-15T14:18:35.961Z,54.58
2022-12-15T14:21:09.260Z,57.13
2022-12-15T14:24:10.998Z,55.88
2022-12-15T14:26:34.838Z,56.33
2022-12-15T14:29:07.638Z,59.60
2022-12-15T14:31:38.719Z,58.78
2022-12-15T15:03:12.826Z,52.63
2022-12-15T15:24:03.554Z,66.88
2022-12-15T15:26:33.083Z,82.28
2022-12-15T15:29:02.986Z,75.45
2022-12-15T15:31:41.319Z,66.25
2022-12-15T15:34:11.609Z,63.70
2022-12-15T15:36:41.036Z,63.67
2022-12-15T15:39:17.060Z,64.40
2022-12-15T15:41:46.275Z,63.55
2022-12-15T15:44:16.827Z,63.22
2022-12-15T15:46:49.872Z,60.25
2022-12-15T15:49:23.563Z,62.83
2022-12-15T15:51:53.340Z,64.10
2022-12-15T15:54:45.751Z,67.82
2022-12-15T15:57:16.394Z,69.57
2022-12-15T15:59:47.130Z,64.38
2022-12-15T16:02:16.900Z,68.53
2022-12-15T16:04:46.123Z,70.68
2022-12-15T16:07:24.172Z,73.75
2022-12-15T16:09:55.819Z,66.28
2022-12-15T16:12:29.372Z,65.95
2022-12-15T16:14:58.524Z,66.85
2022-12-15T16:17:27.611Z,70.65
2022-12-15T16:19:57.738Z,67.40
2022-12-15T16:22:26.848Z,62.97
2022-12-15T16:24:58.481Z,64.90
2022-12-15T16:27:28.491Z,66.22
2022-12-15T16:29:58.119Z,64.03
2022-12-15T16:32:27.265Z,63.53
2022-12-15T16:34:56.224Z,64.13
2022-12-15T16:37:28.369Z,63.97
2022-12-15T16:39:58.713Z,63.05
2022-12-15T16:42:27.755Z,64.80
2022-12-15T16:44:57.326Z,63.60
2022-12-15T16:47:27.240Z,63.63
2022-12-15T16:49:56.301Z,62.20
2022-12-15T16:52:25.309Z,62.22
2022-12-15T16:54:58.570Z,62.13
2022-12-15T16:57:27.699Z,62.70
2022-12-15T16:59:57.223Z,61.10
2022-12-15T17:02:29.837Z,62.60
2022-12-15T17:04:59.149Z,60.67
2022-12-15T17:07:29.567Z,62.92
2022-12-15T17:10:00.784Z,59.60
2022-12-15T17:12:30.213Z,63.10
2022-12-15T17:14:59.580Z,63.42
2022-12-15T17:17:30.653Z,63.63
2022-12-15T17:22:53.556Z,64.47
2022-12-15T17:26:00.857Z,64.13
2022-12-15T17:28:22.355Z,61.08
2022-12-15T17:30:52.532Z,63.95
2022-12-15T17:33:23.666Z,63.03
2022-12-15T17:35:56.044Z,65.13
2022-12-15T17:38:25.291Z,65.07
2022-12-15T17:40:58.056Z,65.20
2022-12-15T17:43:35.403Z,66.43
2022-12-15T17:46:05.378Z,70.07
2022-12-15T17:48:36.203Z,65.22
2022-12-15T17:51:15.460Z,62.38
2022-12-15T17:53:46.261Z,67.57
2022-12-15T17:56:18.916Z,66.53
2022-12-15T17:58:48.172Z,67.38
2022-12-15T18:01:17.438Z,63.67
2022-12-15T18:03:46.809Z,62.55
2022-12-15T18:06:17.353Z,62.30
2022-12-15T18:08:49.110Z,71.22
2022-12-15T18:11:20.128Z,63.03
2022-12-15T18:13:49.113Z,65.13
2022-12-15T18:16:18.961Z,66.88
2022-12-15T18:18:48.108Z,66.70
2022-12-15T18:21:19.270Z,67.57
2022-12-15T18:23:49.442Z,69.10
2022-12-15T18:26:21.090Z,65.95
2022-12-15T18:28:50.176Z,67.65
2022-12-15T18:31:25.791Z,68.38
2022-12-15T18:34:00.918Z,67.63
2022-12-15T18:36:33.440Z,67.40
2022-12-15T18:39:12.559Z,68.20
2022-12-15T18:41:42.914Z,66.78
2022-12-15T18:44:20.552Z,66.57
2022-12-15T18:46:49.815Z,66.35
2022-12-15T18:49:19.587Z,67.53
2022-12-15T18:51:50.897Z,66.00
2022-12-15T18:54:23.902Z,70.72
2022-12-15T18:56:54.848Z,70.10
2022-12-15T18:59:24.016Z,68.07
2022-12-15T19:01:53.345Z,69.85
2022-12-15T19:04:22.611Z,73.63
2022-12-15T19:06:51.954Z,69.00
2022-12-15T19:09:23.250Z,70.60
2022-12-15T19:12:12.603Z,68.65
2022-12-15T19:14:41.757Z,69.90
2022-12-15T19:17:30.574Z,67.63
2022-12-15T19:20:17.055Z,71.07
2022-12-15T19:22:48.326Z,70.13
2022-12-15T19:25:25.980Z,67.95
2022-12-15T19:27:59.335Z,65.20
2022-12-15T19:30:33.222Z,67.53
2022-12-15T19:33:05.137Z,64.77
2022-12-15T19:35:34.535Z,65.40
2022-12-15T19:38:04.603Z,67.72
2022-12-15T19:40:36.803Z,67.85
2022-12-15T19:43:07.419Z,65.72
2022-12-15T19:45:36.540Z,65.90
2022-12-15T19:48:06.500Z,67.35
2022-12-15T19:50:38.583Z,67.25
2022-12-15T19:53:17.543Z,67.85
2022-12-15T19:55:46.614Z,68.45
2022-12-15T19:58:31.987Z,65.65
2022-12-15T20:01:03.910Z,67.07
2022-12-15T20:03:34.534Z,69.18
2022-12-15T20:06:05.667Z,69.35
2022-12-15T20:08:39.239Z,69.43
2022-12-15T20:11:16.258Z,68.90
2022-12-15T20:13:47.258Z,66.80
2022-12-15T20:16:18.955Z,68.20
2022-12-15T20:18:49.281Z,71.13
2022-12-15T20:21:35.471Z,69.63
2022-12-15T20:24:09.875Z,71.15
2022-12-15T20:26:40.413Z,70.75
2022-12-15T20:29:24.256Z,71.13
2022-12-15T20:31:54.413Z,69.43
2022-12-15T20:34:23.674Z,71.93
2022-12-15T20:36:53.656Z,71.55
2022-12-15T20:39:26.738Z,68.53
2022-12-15T20:41:56.672Z,71.78
2022-12-15T20:44:27.783Z,72.80
2022-12-15T20:46:57.061Z,70.57
2022-12-15T20:49:26.381Z,70.75
2022-12-15T20:51:56.548Z,70.65
2022-12-15T20:54:25.611Z,69.18
2022-12-15T20:56:54.763Z,70.72
2022-12-15T20:59:23.791Z,71.55
2022-12-15T21:01:54.954Z,73.20
2022-12-15T21:04:32.112Z,71.88
2022-12-15T21:07:01.231Z,73.32
2022-12-15T21:09:30.318Z,76.30
2022-12-15T21:12:04.350Z,74.40
2022-12-15T21:14:36.553Z,73.03
2022-12-15T21:17:07.224Z,75.72
2022-12-15T21:19:36.336Z,76.10
2022-12-15T21:22:06.488Z,75.68
2022-12-15T21:24:35.885Z,76.68
2022-12-15T21:27:05.291Z,76.93
2022-12-15T21:29:35.152Z,78.93
2022-12-15T21:32:04.276Z,77.45
2022-12-15T21:34:35.144Z,80.63
2022-12-15T21:37:05.695Z,83.50
2022-12-15T21:39:37.453Z,78.78
2022-12-15T21:42:13.097Z,84.90
2022-12-15T21:44:42.733Z,82.20
2022-12-15T21:47:25.976Z,84.15
2022-12-15T21:49:55.420Z,80.90
2022-12-15T21:52:27.732Z,79.75
2022-12-15T21:54:56.697Z,77.93
2022-12-15T21:57:25.778Z,76.97
2022-12-15T21:59:55.184Z,80.00
2022-12-15T22:02:27.839Z,78.10
2022-12-15T22:05:04.824Z,75.25
2022-12-15T22:07:33.837Z,74.28
2022-12-15T22:10:03.490Z,74.65
2022-12-15T22:12:42.296Z,73.03
2022-12-15T22:15:18.433Z,73.53
2022-12-15T22:17:48.223Z,75.63
2022-12-15T22:20:23.285Z,76.80
2022-12-15T22:22:52.535Z,80.32
2022-12-15T22:25:24.601Z,74.65
2022-12-15T22:27:57.683Z,77.57
2022-12-15T22:30:28.249Z,76.13
2022-12-15T22:32:57.450Z,73.78
2022-12-15T22:35:28.591Z,73.38
2022-12-15T22:37:57.669Z,75.82
2022-12-15T22:40:26.665Z,78.80
2022-12-15T22:42:58.375Z,80.82
2022-12-15T22:45:27.565Z,77.47
2022-12-15T22:47:56.532Z,80.10
2022-12-15T22:50:28.414Z,74.88
2022-12-15T22:52:57.396Z,83.32
2022-12-15T22:55:26.478Z,78.45
2022-12-15T22:58:00.687Z,78.82
2022-12-15T23:00:29.765Z,77.97
2022-12-15T23:02:59.660Z,80.30
2022-12-15T23:05:32.795Z,75.13
2022-12-15T23:08:01.804Z,74.65
2022-12-15T23:10:48.319Z,81.97
2022-12-15T23:13:17.407Z,74.63
2022-12-15T23:16:03.988Z,74.60
2022-12-15T23:18:40.335Z,71.22
2022-12-15T23:21:10.868Z,73.53
2022-12-15T23:23:40.605Z,77.13
2022-12-15T23:26:09.951Z,77.93
2022-12-15T23:28:39.420Z,79.35
2022-12-15T23:31:14.137Z,76.20
2022-12-15T23:33:43.277Z,77.50
2022-12-15T23:36:14.546Z,79.38
2022-12-15T23:38:43.668Z,76.38
2022-12-15T23:41:17.947Z,79.75
2022-12-15T23:43:46.989Z,79.97
2022-12-15T23:46:16.152Z,77.25
2022-12-15T23:48:53.512Z,79.45
2022-12-15T23:51:25.615Z,81.47
2022-12-15T23:53:54.802Z,78.75
2022-12-15T23:56:50.555Z,76.65
2022-12-15T23:59:20.757Z,72.75
